Time;durP1;ratioP1;P1;durP2;ratioP2;P2;SDS_P1;SDS_P2;PMS_P1;PMS_P2;Temp;Humidity;BMP_temperature;BMP_pressure;BME280_temperature;BME280_humidity;BME280_pressure;Samples;Min_cycle;Max_cycle;Signal;HPM_P1;HPM_P2
2023/06/13 00:01:48;;;;;;;5.75;3.60;;;;;;;19.55;44.75;100810.69;5034679;28;20041;-67
2023/06/13 00:04:21;;;;;;;4.53;3.90;;;;;;;19.59;44.50;100813.09;5040134;28;20039;-67
2023/06/13 00:06:48;;;;;;;7.13;4.15;;;;;;;19.61;44.36;100805.16;5030261;28;20582;-67
2023/06/13 00:09:13;;;;;;;5.20;4.07;;;;;;;19.62;44.34;100799.84;5034855;28;20107;-67
2023/06/13 00:11:38;;;;;;;6.53;3.95;;;;;;;19.58;44.56;100810.53;5035609;28;20589;-67
2023/06/13 00:14:04;;;;;;;4.40;3.55;;;;;;;19.54;44.42;100808.97;5039810;28;20098;-67
2023/06/13 00:16:29;;;;;;;5.32;3.92;;;;;;;19.52;44.20;100802.94;5036663;28;20068;-67
2023/06/13 00:18:56;;;;;;;6.10;3.90;;;;;;;19.47;44.26;100797.91;5036738;28;20032;-67
2023/06/13 00:21:21;;;;;;;8.38;4.05;;;;;;;19.46;44.19;100806.69;5037149;28;20119;-69
2023/06/13 00:23:46;;;;;;;6.05;3.55;;;;;;;19.43;44.27;100811.22;5041754;28;20104;-67
2023/06/13 00:26:12;;;;;;;6.55;3.75;;;;;;;19.37;44.40;100807.09;5039587;28;20048;-67
2023/06/13 00:28:37;;;;;;;5.63;3.83;;;;;;;19.34;44.34;100811.63;5040394;28;20096;-67
2023/06/13 00:31:02;;;;;;;4.55;3.58;;;;;;;19.32;44.38;100809.09;5038150;28;20045;-68
2023/06/13 00:33:31;;;;;;;5.78;3.95;;;;;;;19.25;44.79;100807.63;5032474;28;20203;-63
2023/06/13 00:35:56;;;;;;;5.05;2.97;;;;;;;19.21;44.90;100813.06;5034280;28;20037;-63
2023/06/13 00:38:23;;;;;;;6.10;4.00;;;;;;;19.19;45.04;100810.50;5036980;28;20037;-67
2023/06/13 00:40:50;;;;;;;4.82;3.50;;;;;;;19.24;44.83;100805.06;5037838;28;20112;-62
2023/06/13 00:43:17;;;;;;;7.78;4.32;;;;;;;19.32;44.92;100801.22;5036329;28;20037;-63
2023/06/13 00:45:42;;;;;;;7.18;3.92;;;;;;;19.35;44.82;100797.59;5038251;28;20033;-63
2023/06/13 00:48:08;;;;;;;5.88;3.78;;;;;;;19.34;44.48;100788.03;5033906;28;20538;-63
2023/06/13 00:50:44;;;;;;;7.45;4.65;;;;;;;19.46;43.36;100769.13;5037437;28;20047;-67
2023/06/13 00:53:16;;;;;;;7.68;3.75;;;;;;;19.48;43.89;100788.25;5034800;28;20630;-67
2023/06/13 00:55:42;;;;;;;8.55;4.13;;;;;;;19.51;43.84;100773.25;5033432;28;20048;-68
2023/06/13 00:58:10;;;;;;;7.97;4.45;;;;;;;19.61;43.31;100773.69;5039180;28;20021;-63
2023/06/13 01:00:37;;;;;;;6.22;4.00;;;;;;;19.63;43.24;100769.22;5038177;28;20032;-63
2023/06/13 01:03:07;;;;;;;6.43;4.00;;;;;;;19.58;43.40;100768.59;5036730;28;20033;-67
2023/06/13 01:05:33;;;;;;;7.13;4.22;;;;;;;19.53;43.56;100773.19;5036058;28;20099;-68
2023/06/13 01:07:59;;;;;;;4.97;3.83;;;;;;;19.47;43.64;100765.59;5036293;28;20760;-67
2023/06/13 01:10:29;;;;;;;4.78;3.70;;;;;;;19.45;43.63;100767.44;5035971;28;20036;-67
2023/06/13 01:13:34;;;;;;;5.32;3.90;;;;;;;19.41;44.07;100768.50;5037101;28;20552;-67
2023/06/13 01:16:11;;;;;;;7.28;3.55;;;;;;;19.32;44.17;100766.28;5020820;28;20060;-67
2023/06/13 01:18:41;;;;;;;9.70;3.90;;;;;;;19.25;44.42;100762.22;5031423;28;20038;-67
2023/06/13 01:21:08;;;;;;;4.93;3.65;;;;;;;19.14;44.75;100767.09;5037782;28;20048;-67
2023/06/13 01:23:49;;;;;;;6.13;3.65;;;;;;;19.03;45.23;100778.88;5035408;28;20444;-67
2023/06/13 01:26:26;;;;;;;6.53;3.63;;;;;;;18.96;45.40;100780.06;5036838;28;20041;-67
2023/06/13 01:28:56;;;;;;;4.75;3.55;;;;;;;18.87;45.73;100787.47;5036409;28;20151;-67
2023/06/13 01:31:23;;;;;;;7.22;4.10;;;;;;;18.78;45.90;100791.28;5035167;28;20064;-67
2023/06/13 01:33:50;;;;;;;4.95;3.42;;;;;;;18.71;46.21;100787.19;5036739;28;20035;-67
2023/06/13 01:36:16;;;;;;;7.40;3.90;;;;;;;18.64;46.56;100788.34;5033191;28;20053;-67
2023/06/13 01:38:42;;;;;;;5.25;3.47;;;;;;;18.58;46.68;100785.16;5034796;28;20672;-67
2023/06/13 01:41:08;;;;;;;5.05;3.83;;;;;;;18.55;46.67;100783.53;5037853;28;20044;-67
2023/06/13 01:43:33;;;;;;;4.72;3.95;;;;;;;18.48;47.02;100782.06;5034845;28;20045;-67
2023/06/13 01:46:28;;;;;;;5.95;3.90;;;;;;;18.43;47.25;100789.25;5036706;28;20025;-67
2023/06/13 01:49:05;;;;;;;4.68;3.90;;;;;;;18.38;47.36;100781.56;5031001;28;20044;-67
2023/06/13 01:51:55;;;;;;;5.80;3.88;;;;;;;18.33;47.58;100788.75;5036224;28;20045;-67
2023/06/13 01:54:22;;;;;;;5.07;3.78;;;;;;;18.28;47.77;100788.09;5040765;28;20095;-69
2023/06/13 01:56:50;;;;;;;9.77;4.45;;;;;;;18.27;47.92;100788.16;5042795;28;20040;-67
2023/06/13 01:59:23;;;;;;;5.57;4.22;;;;;;;18.26;47.85;100786.44;5035959;28;20052;-67
2023/06/13 02:01:49;;;;;;;5.72;4.30;;;;;;;18.24;47.92;100785.66;5035144;28;20216;-63
2023/06/13 02:04:14;;;;;;;5.40;3.70;;;;;;;18.18;48.14;100784.13;5033286;28;20625;-64
2023/06/13 02:06:40;;;;;;;8.52;4.13;;;;;;;18.14;48.55;100782.53;5037849;28;20033;-63
2023/06/13 02:09:05;;;;;;;4.80;3.25;;;;;;;18.10;48.58;100782.72;5037745;28;20466;-67
2023/06/13 02:11:31;;;;;;;5.70;3.80;;;;;;;18.06;48.67;100784.59;5037653;28;20040;-67
2023/06/13 02:13:56;;;;;;;6.30;4.03;;;;;;;18.02;49.21;100784.81;5033351;28;20049;-67
2023/06/13 02:16:25;;;;;;;4.40;3.55;;;;;;;17.97;49.44;100785.81;5038440;28;20077;-64
2023/06/13 02:18:51;;;;;;;8.27;3.92;;;;;;;17.93;49.70;100781.59;5034866;28;20212;-63
2023/06/13 02:21:16;;;;;;;6.50;4.00;;;;;;;17.88;49.75;100782.69;5031742;28;20045;-67
2023/06/13 02:23:41;;;;;;;5.68;3.80;;;;;;;17.83;50.29;100787.22;5041499;28;20044;-67
2023/06/13 02:26:07;;;;;;;7.20;3.83;;;;;;;17.79;50.44;100791.72;5031082;28;20133;-68
2023/06/13 02:28:33;;;;;;;6.10;4.13;;;;;;;17.76;51.35;100794.44;5039528;28;20079;-68
2023/06/13 02:30:59;;;;;;;6.00;4.07;;;;;;;17.73;51.80;100796.31;5038181;28;20494;-67
2023/06/13 02:33:24;;;;;;;9.07;4.50;;;;;;;17.67;51.73;100786.94;5033710;28;20184;-68
2023/06/13 02:35:50;;;;;;;5.53;4.10;;;;;;;17.63;51.82;100793.16;5040221;28;20037;-64
2023/06/13 02:38:16;;;;;;;7.15;4.15;;;;;;;17.57;52.05;100790.81;5016758;28;20045;-63
2023/06/13 02:40:41;;;;;;;5.80;3.80;;;;;;;17.52;51.94;100797.94;5036887;28;20041;-63
2023/06/13 02:43:06;;;;;;;5.25;3.70;;;;;;;17.48;52.21;100795.50;5040047;28;20039;-63
2023/06/13 02:45:32;;;;;;;7.35;4.72;;;;;;;17.47;51.94;100780.72;5038839;28;20174;-63
2023/06/13 02:47:58;;;;;;;4.93;3.90;;;;;;;17.51;51.52;100784.94;5035451;28;20128;-63
2023/06/13 02:50:23;;;;;;;6.70;4.38;;;;;;;17.52;51.17;100771.81;5034640;28;20512;-63
2023/06/13 02:52:48;;;;;;;8.23;4.47;;;;;;;17.51;51.22;100777.97;5041733;28;20033;-63
2023/06/13 02:55:14;;;;;;;6.10;4.20;;;;;;;17.52;51.14;100776.19;5026232;28;20060;-64
2023/06/13 02:57:39;;;;;;;6.57;4.43;;;;;;;17.47;51.43;100773.75;5037811;28;20083;-63
2023/06/13 03:00:11;;;;;;;7.63;4.68;;;;;;;17.46;52.06;100784.25;5038683;28;20128;-63
2023/06/13 03:02:37;;;;;;;6.00;4.13;;;;;;;17.40;51.91;100780.94;5035290;28;20035;-63
2023/06/13 03:05:04;;;;;;;6.60;3.97;;;;;;;17.39;51.79;100787.06;5035976;28;20044;-63
2023/06/13 03:07:31;;;;;;;8.55;4.80;;;;;;;17.45;51.54;100786.03;5031566;28;20032;-62
2023/06/13 03:09:58;;;;;;;6.45;4.30;;;;;;;17.39;51.86;100791.47;5031754;28;20029;-63
2023/06/13 03:12:23;;;;;;;5.32;4.03;;;;;;;17.33;52.23;100787.28;5030517;28;20095;-62
2023/06/13 03:14:49;;;;;;;6.18;4.20;;;;;;;17.28;52.46;100789.22;5033056;28;20036;-62
2023/06/13 03:17:16;;;;;;;6.63;4.38;;;;;;;17.25;52.50;100797.16;5033716;28;20752;-63
2023/06/13 03:19:42;;;;;;;6.88;4.13;;;;;;;17.27;52.20;100789.28;5030201;28;20067;-62
2023/06/13 03:22:13;;;;;;;7.50;4.30;;;;;;;17.22;52.82;100799.88;5032476;28;20949;-63
2023/06/13 03:24:40;;;;;;;6.28;4.70;;;;;;;17.23;52.72;100799.00;5037090;28;20049;-62
2023/06/13 03:27:06;;;;;;;11.10;4.57;;;;;;;17.26;52.42;100801.50;5032340;28;20064;-62
2023/06/13 03:29:31;;;;;;;5.90;4.40;;;;;;;17.28;52.39;100798.81;5036067;28;20084;-62
2023/06/13 03:31:57;;;;;;;5.75;3.75;;;;;;;17.28;52.24;100799.66;5037243;28;20041;-62
2023/06/13 03:34:25;;;;;;;7.00;4.57;;;;;;;17.26;52.76;100803.25;5022202;28;20672;-63
2023/06/13 03:36:51;;;;;;;6.18;3.80;;;;;;;17.25;52.41;100797.16;5039260;28;20939;-62
2023/06/13 03:39:16;;;;;;;5.53;4.13;;;;;;;17.26;52.31;100795.41;5037322;28;20045;-62
2023/06/13 03:41:41;;;;;;;5.85;4.28;;;;;;;17.28;52.50;100798.81;5038533;28;20041;-63
2023/06/13 03:44:07;;;;;;;5.03;3.88;;;;;;;17.31;52.12;100796.94;5038310;28;20136;-62
2023/06/13 03:46:32;;;;;;;6.68;4.07;;;;;;;17.33;52.35;100797.75;5039215;28;20037;-67
2023/06/13 03:48:57;;;;;;;7.57;4.60;;;;;;;17.36;52.50;100802.03;5032970;28;20048;-67
2023/06/13 03:51:23;;;;;;;6.72;4.38;;;;;;;17.35;52.40;100803.78;5038749;28;20746;-67
2023/06/13 03:53:48;;;;;;;4.82;4.18;;;;;;;17.37;52.58;100801.09;5022230;28;20033;-67
2023/06/13 03:56:14;;;;;;;5.43;4.15;;;;;;;17.37;52.68;100798.50;5039852;28;20048;-63
2023/06/13 03:58:39;;;;;;;8.40;4.40;;;;;;;17.40;52.29;100798.38;5036087;28;20044;-63
2023/06/13 04:01:06;;;;;;;5.88;4.57;;;;;;;17.44;52.61;100800.00;5036085;28;20548;-63
2023/06/13 04:03:31;;;;;;;7.97;4.70;;;;;;;17.49;52.29;100792.81;5037308;28;20037;-63
2023/06/13 04:05:57;;;;;;;5.25;4.47;;;;;;;17.55;52.08;100789.13;5038146;28;20767;-67
2023/06/13 04:08:22;;;;;;;6.72;4.07;;;;;;;17.55;52.47;100792.59;5037129;28;20483;-67
2023/06/13 04:10:47;;;;;;;6.22;4.20;;;;;;;17.61;52.26;100799.38;5036953;28;20048;-67
2023/06/13 04:13:13;;;;;;;6.30;4.75;;;;;;;17.64;52.45;100797.50;5040283;28;20622;-67
2023/06/13 04:15:38;;;;;;;7.65;4.75;;;;;;;17.70;52.02;100801.66;5041608;28;20128;-67
2023/06/13 04:18:04;;;;;;;7.65;5.18;;;;;;;17.73;51.81;100797.16;5033022;28;20033;-67
2023/06/13 04:20:29;;;;;;;5.55;4.22;;;;;;;17.77;51.86;100798.75;5033721;28;20157;-67
2023/06/13 04:22:55;;;;;;;5.78;4.00;;;;;;;17.79;51.89;100799.56;5038335;28;20041;-67
2023/06/13 04:25:21;;;;;;;9.50;4.10;;;;;;;17.83;51.86;100813.38;5039364;28;20063;-67
2023/06/13 04:27:48;;;;;;;11.05;4.35;;;;;;;17.88;51.67;100811.47;5039192;28;20533;-67
2023/06/13 04:30:14;;;;;;;8.88;4.82;;;;;;;17.95;51.69;100808.56;5035069;28;20044;-68
2023/06/13 04:32:43;;;;;;;6.63;4.63;;;;;;;17.99;51.74;100813.69;5036406;28;20036;-67
2023/06/13 04:35:16;;;;;;;5.18;4.28;;;;;;;18.03;51.76;100817.88;5034746;28;20754;-68
2023/06/13 04:37:43;;;;;;;8.00;4.80;;;;;;;18.08;51.64;100816.78;5035246;28;20037;-67
2023/06/13 04:40:10;;;;;;;6.95;4.70;;;;;;;18.13;51.51;100814.88;5035871;28;20036;-67
2023/06/13 04:42:37;;;;;;;6.70;4.30;;;;;;;18.18;51.47;100817.28;5037549;28;20045;-67
2023/06/13 04:45:04;;;;;;;7.57;4.45;;;;;;;18.22;51.25;100827.59;5036559;28;20048;-68
2023/06/13 04:47:30;;;;;;;10.57;5.10;;;;;;;18.27;51.34;100816.94;5038036;28;20091;-67
2023/06/13 04:49:59;;;;;;;7.38;4.72;;;;;;;18.32;51.33;100826.31;5031456;28;20514;-67
2023/06/13 04:52:26;;;;;;;6.45;4.47;;;;;;;18.37;51.39;100826.13;5038671;28;20063;-67
2023/06/13 04:54:52;;;;;;;9.80;5.03;;;;;;;18.39;51.82;100832.16;5038471;28;20028;-66
2023/06/13 04:57:18;;;;;;;7.75;4.80;;;;;;;18.44;51.45;100827.59;5040342;28;20040;-67
2023/06/13 04:59:43;;;;;;;8.60;4.55;;;;;;;18.52;51.16;100828.16;5021005;28;20068;-67
2023/06/13 05:02:08;;;;;;;8.02;4.75;;;;;;;18.57;50.74;100823.56;5033720;28;20927;-67
2023/06/13 05:04:36;;;;;;;7.13;4.93;;;;;;;18.63;50.64;100835.56;5032652;28;20045;-67
2023/06/13 05:07:04;;;;;;;6.03;4.57;;;;;;;18.67;50.97;100830.13;5036804;28;20044;-67
2023/06/13 05:09:30;;;;;;;10.98;5.03;;;;;;;18.71;51.08;100836.94;5038768;28;20047;-63
2023/06/13 05:11:56;;;;;;;10.43;4.85;;;;;;;18.75;51.35;100848.16;5037853;28;20056;-63
2023/06/13 05:14:21;;;;;;;9.43;4.97;;;;;;;18.79;51.15;100836.66;5033975;28;20041;-63
2023/06/13 05:16:47;;;;;;;7.30;4.43;;;;;;;18.89;50.30;100830.13;5035647;28;20083;-62
2023/06/13 05:19:12;;;;;;;10.20;5.05;;;;;;;18.96;50.14;100829.84;5035485;28;20394;-62
2023/06/13 05:21:38;;;;;;;6.07;4.57;;;;;;;19.03;50.66;100839.13;5031827;28;20387;-62
2023/06/13 05:24:03;;;;;;;5.93;4.30;;;;;;;19.06;50.35;100839.00;5037802;28;20119;-62
2023/06/13 05:26:29;;;;;;;11.32;4.57;;;;;;;19.12;50.44;100832.66;5037196;28;20534;-62
2023/06/13 05:28:54;;;;;;;7.82;5.32;;;;;;;19.22;50.22;100833.13;5035993;28;20040;-62
2023/06/13 05:31:19;;;;;;;7.47;4.10;;;;;;;19.29;50.83;100840.66;5022677;28;20080;-62
2023/06/13 05:33:45;;;;;;;6.75;4.50;;;;;;;19.39;50.42;100836.72;5033458;28;20565;-63
2023/06/13 05:36:11;;;;;;;6.97;4.65;;;;;;;19.47;50.17;100833.78;5036052;28;20064;-62
2023/06/13 05:38:37;;;;;;;8.38;4.75;;;;;;;19.56;49.71;100831.56;5037995;28;20247;-62
2023/06/13 05:41:02;;;;;;;5.93;4.43;;;;;;;19.63;49.46;100826.91;5033194;28;20040;-62
2023/06/13 05:43:27;;;;;;;7.78;4.55;;;;;;;19.67;49.01;100825.88;5031944;28;20033;-62
2023/06/13 05:45:53;;;;;;;6.35;4.30;;;;;;;19.71;49.08;100822.16;5033962;28;20029;-63
2023/06/13 05:48:18;;;;;;;8.77;4.57;;;;;;;19.79;49.32;100830.59;5032411;28;20048;-62
2023/06/13 05:50:44;;;;;;;9.50;5.28;;;;;;;19.87;49.00;100825.84;5015326;28;20041;-63
2023/06/13 05:53:10;;;;;;;6.90;4.43;;;;;;;19.97;49.29;100828.91;5039927;28;20397;-62
2023/06/13 05:55:35;;;;;;;8.68;4.38;;;;;;;20.03;48.83;100819.00;5039028;28;20032;-63
2023/06/13 05:58:00;;;;;;;6.75;4.40;;;;;;;20.15;48.45;100817.56;5035309;28;20760;-63
2023/06/13 06:00:26;;;;;;;7.35;4.57;;;;;;;20.25;48.17;100810.09;5036341;28;20048;-63
2023/06/13 06:02:52;;;;;;;10.90;4.65;;;;;;;20.31;47.64;100817.66;5037618;28;20144;-62
2023/06/13 06:05:19;;;;;;;8.10;4.70;;;;;;;20.43;47.78;100817.94;5037600;28;20655;-63
2023/06/13 06:07:45;;;;;;;12.48;4.90;;;;;;;20.56;47.88;100818.22;5033184;28;20041;-62
2023/06/13 06:10:12;;;;;;;9.25;5.05;;;;;;;20.61;47.12;100798.66;5035790;28;20025;-62
2023/06/13 06:12:38;;;;;;;8.80;4.57;;;;;;;20.65;46.96;100807.25;5034741;28;20075;-62
2023/06/13 06:15:04;;;;;;;6.05;4.28;;;;;;;20.72;46.51;100798.16;5038397;28;20497;-63
2023/06/13 06:17:29;;;;;;;6.00;4.50;;;;;;;20.77;45.04;100788.28;5035624;28;20092;-62
2023/06/13 06:19:55;;;;;;;14.90;5.32;;;;;;;20.84;46.09;100792.28;5030899;28;20519;-62
2023/06/13 06:22:20;;;;;;;7.75;4.70;;;;;;;20.93;45.73;100791.00;5034495;28;20036;-64
2023/06/13 06:24:46;;;;;;;10.95;4.43;;;;;;;21.00;45.61;100787.97;5039598;28;20107;-62
2023/06/13 06:27:12;;;;;;;8.18;4.80;;;;;;;21.05;44.91;100778.06;5035066;28;20049;-62
2023/06/13 06:29:38;;;;;;;8.60;4.35;;;;;;;21.10;45.06;100785.75;5034498;28;20037;-62
2023/06/13 06:32:04;;;;;;;6.90;4.63;;;;;;;21.21;44.94;100781.63;5034719;28;20780;-63
2023/06/13 06:34:30;;;;;;;7.80;4.30;;;;;;;21.26;45.07;100781.38;5031835;28;20498;-63
2023/06/13 06:36:55;;;;;;;9.27;4.53;;;;;;;21.29;45.81;100797.00;5036433;28;20087;-62
2023/06/13 06:39:22;;;;;;;5.95;3.90;;;;;;;21.33;45.49;100782.75;5034490;28;20029;-62
2023/06/13 06:41:48;;;;;;;7.65;4.72;;;;;;;21.47;45.71;100792.53;5034658;28;20033;-63
2023/06/13 06:44:13;;;;;;;7.35;4.28;;;;;;;21.50;44.56;100773.97;5034613;28;20536;-63
2023/06/13 06:46:38;;;;;;;11.95;3.72;;;;;;;21.58;45.13;100779.72;5033548;28;20044;-63
2023/06/13 06:49:04;;;;;;;6.47;4.50;;;;;;;21.65;44.53;100779.31;5026854;28;20065;-66
2023/06/13 06:51:29;;;;;;;8.23;4.80;;;;;;;21.72;44.55;100782.47;5035304;28;20041;-66
2023/06/13 06:53:56;;;;;;;7.65;4.40;;;;;;;21.81;44.56;100779.34;5032408;28;20028;-66
2023/06/13 06:56:22;;;;;;;10.45;4.88;;;;;;;21.90;44.51;100784.09;5032802;28;20514;-66
2023/06/13 06:58:47;;;;;;;10.55;4.82;;;;;;;21.99;43.61;100772.22;5032616;28;20136;-66
2023/06/13 07:01:18;;;;;;;10.55;4.75;;;;;;;21.96;43.93;100775.88;5023960;28;20139;-65
2023/06/13 07:03:44;;;;;;;6.78;4.35;;;;;;;22.02;44.61;100787.84;5021854;28;20160;-65
2023/06/13 07:06:11;;;;;;;6.63;4.45;;;;;;;22.09;44.09;100789.19;5028704;28;20041;-65
2023/06/13 07:08:37;;;;;;;8.10;4.88;;;;;;;22.22;44.89;100795.47;5025665;28;20041;-63
2023/06/13 07:11:02;;;;;;;6.22;4.07;;;;;;;22.32;44.61;100786.97;5022188;28;20048;-63
2023/06/13 07:13:27;;;;;;;8.70;4.72;;;;;;;22.39;44.12;100784.88;5024563;28;20056;-63
2023/06/13 07:15:53;;;;;;;5.05;3.67;;;;;;;22.45;43.40;100776.63;5033516;28;20035;-63
2023/06/13 07:18:18;;;;;;;6.65;4.30;;;;;;;22.49;44.02;100782.56;5031655;28;20048;-63
2023/06/13 07:20:46;;;;;;;6.75;4.18;;;;;;;22.51;44.23;100791.22;5032532;28;20095;-64
2023/06/13 07:23:12;;;;;;;4.10;3.70;;;;;;;22.51;42.52;100768.38;5029157;28;20041;-63
2023/06/13 07:25:40;;;;;;;5.00;3.60;;;;;;;22.56;41.70;100760.22;5036158;28;20039;-63
2023/06/13 07:28:06;;;;;;;6.78;4.00;;;;;;;22.66;41.39;100754.31;5031406;28;20037;-63
2023/06/13 07:30:32;;;;;;;6.80;3.42;;;;;;;22.70;40.79;100754.97;5029092;28;20585;-63
2023/06/13 07:32:57;;;;;;;6.20;3.90;;;;;;;22.82;41.20;100762.19;5031927;28;20037;-63
2023/06/13 07:35:23;;;;;;;6.57;4.05;;;;;;;22.93;39.90;100746.56;5036394;28;20045;-63
2023/06/13 07:37:55;;;;;;;5.53;3.47;;;;;;;22.99;39.79;100746.19;5034189;28;20719;-63
2023/06/13 07:40:24;;;;;;;5.88;3.67;;;;;;;23.17;39.67;100746.88;5022372;28;20106;-66
2023/06/13 07:42:50;;;;;;;7.85;3.58;;;;;;;23.20;39.43;100749.38;5033957;28;20043;-66
2023/06/13 07:45:15;;;;;;;5.45;3.85;;;;;;;23.22;40.16;100761.50;5025195;28;22107;-65
2023/06/13 07:47:41;;;;;;;8.10;4.10;;;;;;;23.29;40.74;100778.69;5022716;28;20033;-66
2023/06/13 07:50:07;;;;;;;7.28;3.70;;;;;;;23.35;39.33;100746.66;5020144;28;20120;-66
2023/06/13 07:52:33;;;;;;;8.02;4.10;;;;;;;23.49;39.09;100760.75;5027511;28;20087;-66
2023/06/13 07:54:58;;;;;;;9.45;4.00;;;;;;;23.60;40.38;100769.72;5019064;28;20844;-65
2023/06/13 07:57:23;;;;;;;8.52;3.97;;;;;;;23.69;39.85;100763.03;5033885;28;20033;-65
2023/06/13 07:59:49;;;;;;;6.18;3.65;;;;;;;23.75;38.73;100749.47;5034518;28;20033;-66
2023/06/13 08:02:14;;;;;;;6.40;4.07;;;;;;;23.73;38.20;100740.75;5030459;28;20510;-66
2023/06/13 08:04:40;;;;;;;5.38;3.67;;;;;;;23.65;38.96;100753.59;5034620;28;20044;-66
2023/06/13 08:07:05;;;;;;;5.07;3.38;;;;;;;23.61;38.55;100752.09;5031953;28;20040;-66
2023/06/13 08:09:30;;;;;;;4.70;3.60;;;;;;;23.62;39.26;100762.56;5029104;28;20693;-66
2023/06/13 08:11:58;;;;;;;5.57;3.28;;;;;;;23.67;38.70;100756.97;5030109;28;20465;-63
2023/06/13 08:14:23;;;;;;;5.47;3.75;;;;;;;23.63;39.58;100766.06;5035549;28;20040;-63
2023/06/13 08:16:49;;;;;;;6.30;3.97;;;;;;;23.68;39.35;100756.06;5034971;28;20029;-63
2023/06/13 08:19:15;;;;;;;6.18;3.75;;;;;;;23.76;38.75;100741.44;5032982;28;20112;-63
2023/06/13 08:21:40;;;;;;;6.10;3.45;;;;;;;23.85;37.95;100740.84;5036980;28;20557;-63
2023/06/13 08:24:06;;;;;;;5.18;4.05;;;;;;;23.92;38.32;100743.94;5037090;28;20041;-63
2023/06/13 08:26:34;;;;;;;4.45;3.42;;;;;;;24.07;37.46;100740.38;5037672;28;20045;-63
2023/06/13 08:29:02;;;;;;;5.57;3.83;;;;;;;24.17;36.27;100722.97;5038858;28;20041;-64
2023/06/13 08:31:31;;;;;;;6.30;3.58;;;;;;;24.29;36.55;100730.09;5035185;28;20129;-64
2023/06/13 08:33:58;;;;;;;8.23;3.92;;;;;;;24.37;37.05;100729.59;5038353;28;20661;-63
2023/06/13 08:36:25;;;;;;;5.32;3.67;;;;;;;24.60;36.60;100734.19;5036608;28;20037;-62
2023/06/13 08:38:57;;;;;;;5.55;3.28;;;;;;;24.75;37.13;100732.34;5032896;28;20418;-63
2023/06/13 08:41:25;;;;;;;5.88;4.18;;;;;;;24.82;36.13;100729.19;5033535;28;20466;-63
2023/06/13 08:43:52;;;;;;;7.35;3.50;;;;;;;24.81;35.64;100721.38;5015554;28;20045;-63
2023/06/13 08:46:18;;;;;;;4.57;3.63;;;;;;;24.88;36.66;100733.19;5036934;28;20044;-63
2023/06/13 08:48:43;;;;;;;7.45;3.75;;;;;;;25.00;36.32;100729.72;5033030;28;20029;-63
2023/06/13 08:51:16;;;;;;;8.32;4.03;;;;;;;25.01;35.57;100719.06;5038013;28;20039;-65
2023/06/13 08:53:49;;;;;;;4.22;3.30;;;;;;;25.12;35.37;100715.66;5033974;28;20048;-66
2023/06/13 08:56:15;;;;;;;10.88;3.97;;;;;;;25.17;34.68;100710.06;5036060;28;20029;-65
2023/06/13 08:58:43;;;;;;;6.43;3.22;;;;;;;25.21;34.63;100716.81;5036917;28;20086;-65
2023/06/13 09:01:10;;;;;;;7.28;3.45;;;;;;;25.16;33.96;100703.91;5037312;28;20546;-65
2023/06/13 09:03:37;;;;;;;7.05;3.95;;;;;;;25.25;34.61;100707.72;5031457;28;20047;-66
2023/06/13 09:06:04;;;;;;;7.07;3.42;;;;;;;25.45;33.71;100691.31;5035201;28;20103;-66
2023/06/13 09:08:31;;;;;;;9.05;4.20;;;;;;;25.49;33.40;100692.78;5034605;28;20041;-66
2023/06/13 09:10:58;;;;;;;5.07;3.40;;;;;;;25.47;32.20;100687.59;5042563;28;20041;-66
2023/06/13 09:13:24;;;;;;;8.75;3.50;;;;;;;25.43;32.65;100695.88;5019101;28;20044;-65
2023/06/13 09:15:50;;;;;;;5.78;3.33;;;;;;;25.62;33.33;100704.19;5038617;28;20037;-66
2023/06/13 09:18:16;;;;;;;7.13;3.50;;;;;;;25.76;33.61;100692.59;5031304;28;20087;-65
2023/06/13 09:20:41;;;;;;;5.00;3.03;;;;;;;25.87;33.54;100687.38;5035780;28;20039;-66
2023/06/13 09:23:07;;;;;;;4.95;3.60;;;;;;;25.92;32.12;100682.56;5037704;28;20033;-65
2023/06/13 09:25:36;;;;;;;7.00;3.35;;;;;;;25.95;33.01;100700.91;5035256;28;20037;-65
2023/06/13 09:28:36;;;;;;;5.32;3.00;;;;;;;26.03;32.33;100687.97;5036750;28;20040;-66
2023/06/13 09:31:01;;;;;;;4.22;3.03;;;;;;;26.07;32.12;100678.81;5033426;28;20079;-66
2023/06/13 09:33:26;;;;;;;5.47;3.30;;;;;;;26.13;32.92;100691.63;5030130;28;20550;-64
2023/06/13 09:35:52;;;;;;;4.88;3.30;;;;;;;26.25;32.73;100681.91;5036999;28;20029;-65
2023/06/13 09:38:26;;;;;;;4.85;3.60;;;;;;;26.17;31.46;100662.16;5035775;28;20045;-65
2023/06/13 09:40:54;;;;;;;;;;;;;;;26.05;34.01;100693.97;5034918;28;20049;-66
2023/06/13 09:43:20;;;;;;;6.47;3.20;;;;;;;26.22;33.48;100685.66;5036295;28;19920;-65
2023/06/13 09:45:47;;;;;;;6.25;3.20;;;;;;;26.33;32.81;100683.06;5031934;28;20094;-66
2023/06/13 09:48:13;;;;;;;5.60;2.78;;;;;;;26.41;31.83;100671.88;5033767;28;20044;-65
2023/06/13 09:50:40;;;;;;;7.45;3.25;;;;;;;26.38;31.73;100664.16;5027558;28;20471;-65
2023/06/13 09:53:07;;;;;;;4.60;3.10;;;;;;;26.27;31.80;100666.78;5034620;28;20044;-66
2023/06/13 09:55:33;;;;;;;6.38;3.08;;;;;;;26.49;32.28;100667.69;5018955;28;20585;-66
2023/06/13 09:57:59;;;;;;;5.18;3.47;;;;;;;26.80;32.10;100657.41;5037447;28;20064;-63
2023/06/13 10:00:24;;;;;;;6.93;3.50;;;;;;;26.86;30.33;100646.34;5035465;28;20111;-63
2023/06/13 10:02:50;;;;;;;7.30;3.67;;;;;;;26.67;31.25;100654.81;5034499;28;20025;-62
2023/06/13 10:05:16;;;;;;;5.38;3.50;;;;;;;26.84;31.06;100654.41;5036914;28;20428;-63
2023/06/13 10:07:41;;;;;;;5.38;3.28;;;;;;;26.77;30.86;100647.88;5036261;28;20048;-64
2023/06/13 10:10:07;;;;;;;5.63;3.50;;;;;;;26.66;30.55;100653.13;5036746;28;20087;-63
2023/06/13 10:12:38;;;;;;;4.05;3.38;;;;;;;26.80;31.16;100654.75;5032686;28;20102;-64
2023/06/13 10:15:06;;;;;;;6.25;3.40;;;;;;;26.69;29.46;100635.19;5038543;28;20378;-63
2023/06/13 10:17:35;;;;;;;7.18;3.67;;;;;;;26.70;29.47;100639.53;5034212;28;20033;-64
2023/06/13 10:20:06;;;;;;;6.72;3.28;;;;;;;26.84;29.91;100640.31;5031940;28;20041;-64
2023/06/13 10:22:33;;;;;;;5.57;3.17;;;;;;;26.95;29.99;100637.66;5035411;28;20041;-64
2023/06/13 10:24:59;;;;;;;6.80;3.88;;;;;;;27.08;29.56;100636.56;5033620;28;20469;-64
2023/06/13 10:27:25;;;;;;;5.97;3.80;;;;;;;27.05;29.61;100641.25;5037934;28;20029;-64
2023/06/13 10:29:56;;;;;;;7.13;3.55;;;;;;;27.19;29.14;100635.75;5038716;28;20049;-64
2023/06/13 10:32:40;;;;;;;5.47;3.35;;;;;;;27.34;30.57;100649.59;5040007;28;20065;-64
2023/06/13 10:35:16;;;;;;;7.72;3.63;;;;;;;27.48;28.61;100634.28;5030828;28;20091;-64
2023/06/13 10:37:48;;;;;;;5.15;3.80;;;;;;;27.67;28.96;100615.88;5030485;28;20117;-64
2023/06/13 10:40:28;;;;;;;6.45;3.25;;;;;;;27.78;29.11;100621.16;5031578;28;20033;-64
2023/06/13 10:43:07;;;;;;;11.98;3.40;;;;;;;27.85;29.00;100624.16;5036870;28;20398;-64
2023/06/13 10:45:35;;;;;;;5.45;3.53;;;;;;;27.94;28.83;100620.72;5033082;28;21182;-64
2023/06/13 10:48:05;;;;;;;6.15;3.88;;;;;;;27.93;28.37;100615.56;5031157;28;20025;-65
2023/06/13 10:50:39;;;;;;;5.55;3.85;;;;;;;27.84;28.86;100618.97;5034783;28;20025;-64
2023/06/13 10:53:04;;;;;;;;;;;;;;;28.05;28.07;100612.72;5035596;28;20041;-64
2023/06/13 10:55:32;;;;;;;6.88;3.90;;;;;;;28.17;28.17;100616.22;5034297;28;19964;-64
2023/06/13 10:57:59;;;;;;;4.82;4.15;;;;;;;28.24;27.62;100612.03;5035742;28;20041;-62
2023/06/13 11:00:29;;;;;;;8.65;3.88;;;;;;;28.16;27.16;100610.03;5034030;28;20497;-63
2023/06/13 11:03:04;;;;;;;7.57;3.78;;;;;;;28.25;27.22;100603.97;5032363;28;20067;-63
2023/06/13 11:05:33;;;;;;;7.28;4.15;;;;;;;28.33;26.89;100590.00;5031483;28;20831;-64
2023/06/13 11:07:58;;;;;;;8.13;3.72;;;;;;;28.45;28.09;100615.56;5030018;28;20048;-65
2023/06/13 11:10:24;;;;;;;7.07;3.58;;;;;;;28.34;27.60;100607.66;5027798;28;20037;-65
2023/06/13 11:12:53;;;;;;;7.40;3.72;;;;;;;28.44;26.68;100597.09;5049055;28;20044;-65
2023/06/13 11:15:31;;;;;;;6.25;3.60;;;;;;;28.21;26.51;100583.91;5028688;28;20063;-65
2023/06/13 11:18:08;;;;;;;7.00;3.63;;;;;;;28.38;26.45;100595.78;5029566;28;20033;-64
2023/06/13 11:20:46;;;;;;;6.53;3.67;;;;;;;28.21;25.46;100589.22;5033766;28;20046;-65
2023/06/13 11:23:13;;;;;;;7.05;3.92;;;;;;;28.18;26.11;100591.28;5028424;28;20036;-65
2023/06/13 11:25:39;;;;;;;6.43;3.28;;;;;;;28.38;25.77;100586.97;5036055;28;20037;-65